sensor_id;sensor_type;location;lat;lon;timestamp;temperature;humidity
18868;DHT22;9563;49.240;9.088;2024-03-02T05:01:59;5.50;99.90
18868;DHT22;9563;49.240;9.088;2024-03-02T05:04:25;5.50;99.90
18868;DHT22;9563;49.240;9.088;2024-03-02T05:06:52;5.40;99.90
18868;DHT22;9563;49.240;9.088;2024-03-02T05:09:21;5.40;99.90
18868;DHT22;9563;49.240;9.088;2024-03-02T05:11:48;5.40;99.90
18868;DHT22;9563;49.240;9.088;2024-03-02T05:14:28;5.30;99.90
18868;DHT22;9563;49.240;9.088;2024-03-02T05:16:55;5.30;99.90
18868;DHT22;9563;49.240;9.088;2024-03-02T05:19:23;5.30;99.90
18868;DHT22;9563;49.240;9.088;2024-03-02T05:21:50;5.30;99.90
18868;DHT22;9563;49.240;9.088;2024-03-02T05:24:17;5.30;99.90
18868;DHT22;9563;49.240;9.088;2024-03-02T05:26:44;5.30;99.90
18868;DHT22;9563;49.240;9.088;2024-03-02T05:29:11;5.30;99.90
18868;DHT22;9563;49.240;9.088;2024-03-02T05:31:38;5.30;99.90
18868;DHT22;9563;49.240;9.088;2024-03-02T05:34:05;5.30;99.90
18868;DHT22;9563;49.240;9.088;2024-03-02T05:36:33;5.30;99.90
18868;DHT22;9563;49.240;9.088;2024-03-02T05:39:00;5.30;99.90
18868;DHT22;9563;49.240;9.088;2024-03-02T05:41:27;5.30;99.90
18868;DHT22;9563;49.240;9.088;2024-03-02T05:43:54;5.20;99.90
18868;DHT22;9563;49.240;9.088;2024-03-02T05:46:20;5.20;99.90
18868;DHT22;9563;49.240;9.088;2024-03-02T05:48:47;5.30;99.90
18868;DHT22;9563;49.240;9.088;2024-03-02T05:51:14;5.30;99.90
18868;DHT22;9563;49.240;9.088;2024-03-02T05:53:42;5.30;99.90
18868;DHT22;9563;49.240;9.088;2024-03-02T05:56:09;5.30;99.90
18868;DHT22;9563;49.240;9.088;2024-03-02T05:58:37;5.30;99.90
18868;DHT22;9563;49.240;9.088;2024-03-02T06:01:15;5.30;99.90
18868;DHT22;9563;49.240;9.088;2024-03-02T06:03:43;5.30;99.90
18868;DHT22;9563;49.240;9.088;2024-03-02T06:06:10;5.40;99.90
18868;DHT22;9563;49.240;9.088;2024-03-02T06:08:37;5.40;99.90
18868;DHT22;9563;49.240;9.088;2024-03-02T06:11:06;5.40;99.90
18868;DHT22;9563;49.240;9.088;2024-03-02T06:13:33;5.30;99.90
18868;DHT22;9563;49.240;9.088;2024-03-02T06:15:59;5.40;99.90
18868;DHT22;9563;49.240;9.088;2024-03-02T06:18:26;5.50;99.90
18868;DHT22;9563;49.240;9.088;2024-03-02T06:20:53;5.50;99.90
18868;DHT22;9563;49.240;9.088;2024-03-02T06:23:20;5.50;99.90
18868;DHT22;9563;49.240;9.088;2024-03-02T06:25:47;5.60;99.90
18868;DHT22;9563;49.240;9.088;2024-03-02T06:28:15;5.60;99.90
18868;DHT22;9563;49.240;9.088;2024-03-02T06:30:42;5.60;99.90
18868;DHT22;9563;49.240;9.088;2024-03-02T06:33:09;5.60;99.90
18868;DHT22;9563;49.240;9.088;2024-03-02T06:35:36;5.60;99.90
18868;DHT22;9563;49.240;9.088;2024-03-02T06:38:03;5.70;99.90
18868;DHT22;9563;49.240;9.088;2024-03-02T06:40:30;5.80;99.90
18868;DHT22;9563;49.240;9.088;2024-03-02T06:42:57;5.90;99.90
18868;DHT22;9563;49.240;9.088;2024-03-02T06:45:25;5.90;99.90
18868;DHT22;9563;49.240;9.088;2024-03-02T06:47:52;5.90;99.90
18868;DHT22;9563;49.240;9.088;2024-03-02T06:50:19;6.00;99.90
18868;DHT22;9563;49.240;9.088;2024-03-02T06:52:46;6.10;99.90
18868;DHT22;9563;49.240;9.088;2024-03-02T06:55:13;6.20;99.90
18868;DHT22;9563;49.240;9.088;2024-03-02T06:57:40;6.30;99.90
18868;DHT22;9563;49.240;9.088;2024-03-02T07:00:07;6.40;99.90
18868;DHT22;9563;49.240;9.088;2024-03-02T07:02:36;6.40;99.90
18868;DHT22;9563;49.240;9.088;2024-03-02T07:05:03;6.40;99.90
18868;DHT22;9563;49.240;9.088;2024-03-02T07:07:30;6.50;99.90
18868;DHT22;9563;49.240;9.088;2024-03-02T07:09:57;6.50;99.90
18868;DHT22;9563;49.240;9.088;2024-03-02T07:12:24;6.60;99.90
18868;DHT22;9563;49.240;9.088;2024-03-02T07:14:51;6.70;99.90
18868;DHT22;9563;49.240;9.088;2024-03-02T07:17:38;6.70;99.90
18868;DHT22;9563;49.240;9.088;2024-03-02T07:20:05;6.70;99.90
18868;DHT22;9563;49.240;9.088;2024-03-02T07:22:32;6.70;99.90
18868;DHT22;9563;49.240;9.088;2024-03-02T07:25:00;6.80;99.90
18868;DHT22;9563;49.240;9.088;2024-03-02T07:27:26;6.80;99.90
18868;DHT22;9563;49.240;9.088;2024-03-02T07:29:53;6.90;99.90
18868;DHT22;9563;49.240;9.088;2024-03-02T07:32:21;6.90;99.90
18868;DHT22;9563;49.240;9.088;2024-03-02T07:34:49;6.90;99.90
18868;DHT22;9563;49.240;9.088;2024-03-02T07:37:17;6.90;99.90
18868;DHT22;9563;49.240;9.088;2024-03-02T07:39:44;6.90;99.90
18868;DHT22;9563;49.240;9.088;2024-03-02T07:42:11;7.00;99.90
18868;DHT22;9563;49.240;9.088;2024-03-02T07:44:38;7.00;99.90
18868;DHT22;9563;49.240;9.088;2024-03-02T07:47:05;7.00;99.90
18868;DHT22;9563;49.240;9.088;2024-03-02T07:49:33;7.00;99.90
18868;DHT22;9563;49.240;9.088;2024-03-02T07:52:01;7.00;99.90
18868;DHT22;9563;49.240;9.088;2024-03-02T07:54:28;7.00;99.90
18868;DHT22;9563;49.240;9.088;2024-03-02T07:56:55;7.00;99.90
18868;DHT22;9563;49.240;9.088;2024-03-02T07:59:22;7.00;99.90
18868;DHT22;9563;49.240;9.088;2024-03-02T08:01:49;7.10;99.90
18868;DHT22;9563;49.240;9.088;2024-03-02T08:04:16;7.10;99.90
18868;DHT22;9563;49.240;9.088;2024-03-02T08:06:43;7.10;99.90
18868;DHT22;9563;49.240;9.088;2024-03-02T08:09:13;7.10;99.90
18868;DHT22;9563;49.240;9.088;2024-03-02T08:11:40;7.20;99.90
18868;DHT22;9563;49.240;9.088;2024-03-02T08:14:07;7.30;99.90
18868;DHT22;9563;49.240;9.088;2024-03-02T08:16:33;7.30;99.90
18868;DHT22;9563;49.240;9.088;2024-03-02T08:19:00;7.40;99.90
18868;DHT22;9563;49.240;9.088;2024-03-02T08:21:29;7.40;99.90
18868;DHT22;9563;49.240;9.088;2024-03-02T08:23:57;7.50;99.90
18868;DHT22;9563;49.240;9.088;2024-03-02T08:26:26;7.50;99.90
18868;DHT22;9563;49.240;9.088;2024-03-02T08:28:55;7.50;99.90
18868;DHT22;9563;49.240;9.088;2024-03-02T08:31:22;7.60;99.90
18868;DHT22;9563;49.240;9.088;2024-03-02T08:33:49;7.60;99.90
18868;DHT22;9563;49.240;9.088;2024-03-02T08:36:15;7.70;99.90
18868;DHT22;9563;49.240;9.088;2024-03-02T08:38:42;7.80;99.90
18868;DHT22;9563;49.240;9.088;2024-03-02T08:41:10;8.00;99.90
18868;DHT22;9563;49.240;9.088;2024-03-02T08:43:40;8.40;99.90
18868;DHT22;9563;49.240;9.088;2024-03-02T08:46:07;8.80;99.90
18868;DHT22;9563;49.240;9.088;2024-03-02T08:48:34;9.30;99.90
18868;DHT22;9563;49.240;9.088;2024-03-02T08:51:01;9.70;99.90
18868;DHT22;9563;49.240;9.088;2024-03-02T08:53:31;10.20;99.90
18868;DHT22;9563;49.240;9.088;2024-03-02T08:55:58;10.70;99.90
18868;DHT22;9563;49.240;9.088;2024-03-02T08:58:25;11.00;99.90
18868;DHT22;9563;49.240;9.088;2024-03-02T09:00:53;11.40;99.90
18868;DHT22;9563;49.240;9.088;2024-03-02T09:03:20;11.80;99.90
18868;DHT22;9563;49.240;9.088;2024-03-02T09:05:47;12.10;99.90
18868;DHT22;9563;49.240;9.088;2024-03-02T09:08:14;12.30;99.90
18868;DHT22;9563;49.240;9.088;2024-03-02T09:10:41;12.50;99.90
18868;DHT22;9563;49.240;9.088;2024-03-02T09:13:09;12.60;99.90
18868;DHT22;9563;49.240;9.088;2024-03-02T09:15:36;12.80;99.90
18868;DHT22;9563;49.240;9.088;2024-03-02T09:18:06;12.90;99.90
18868;DHT22;9563;49.240;9.088;2024-03-02T09:20:33;13.10;99.90
18868;DHT22;9563;49.240;9.088;2024-03-02T09:23:00;13.10;99.90
18868;DHT22;9563;49.240;9.088;2024-03-02T09:25:27;13.20;99.90
18868;DHT22;9563;49.240;9.088;2024-03-02T09:27:54;13.40;99.90
18868;DHT22;9563;49.240;9.088;2024-03-02T09:30:20;13.40;99.90
18868;DHT22;9563;49.240;9.088;2024-03-02T09:32:47;13.40;99.90
18868;DHT22;9563;49.240;9.088;2024-03-02T09:35:16;13.40;99.90
18868;DHT22;9563;49.240;9.088;2024-03-02T09:37:43;13.70;99.90
18868;DHT22;9563;49.240;9.088;2024-03-02T09:40:11;13.90;99.90
18868;DHT22;9563;49.240;9.088;2024-03-02T09:42:38;14.20;99.90
18868;DHT22;9563;49.240;9.088;2024-03-02T09:45:06;14.50;99.90
18868;DHT22;9563;49.240;9.088;2024-03-02T09:47:33;14.70;99.90
18868;DHT22;9563;49.240;9.088;2024-03-02T09:50:00;14.60;99.90
18868;DHT22;9563;49.240;9.088;2024-03-02T09:52:29;14.60;99.90
18868;DHT22;9563;49.240;9.088;2024-03-02T09:54:56;14.90;99.90
18868;DHT22;9563;49.240;9.088;2024-03-02T09:57:23;15.00;99.90
18868;DHT22;9563;49.240;9.088;2024-03-02T09:59:50;15.00;99.90
18868;DHT22;9563;49.240;9.088;2024-03-02T10:02:17;15.10;99.90
18868;DHT22;9563;49.240;9.088;2024-03-02T10:04:44;15.20;99.90
18868;DHT22;9563;49.240;9.088;2024-03-02T10:07:13;15.30;99.90
18868;DHT22;9563;49.240;9.088;2024-03-02T10:09:43;15.50;99.90
18868;DHT22;9563;49.240;9.088;2024-03-02T10:12:11;15.70;99.90
18868;DHT22;9563;49.240;9.088;2024-03-02T10:14:38;16.00;99.90
18868;DHT22;9563;49.240;9.088;2024-03-02T10:17:07;16.10;99.90
18868;DHT22;9563;49.240;9.088;2024-03-02T10:19:34;16.00;99.90
18868;DHT22;9563;49.240;9.088;2024-03-02T10:22:03;16.10;99.90
18868;DHT22;9563;49.240;9.088;2024-03-02T10:24:36;16.40;99.90
18868;DHT22;9563;49.240;9.088;2024-03-02T10:27:08;16.70;99.90
18868;DHT22;9563;49.240;9.088;2024-03-02T10:29:39;16.80;99.90
18868;DHT22;9563;49.240;9.088;2024-03-02T10:32:08;17.20;99.90
18868;DHT22;9563;49.240;9.088;2024-03-02T10:34:36;17.30;99.90
18868;DHT22;9563;49.240;9.088;2024-03-02T10:37:04;17.70;99.90
18868;DHT22;9563;49.240;9.088;2024-03-02T10:39:31;17.80;99.90
18868;DHT22;9563;49.240;9.088;2024-03-02T10:42:02;17.90;99.90
18868;DHT22;9563;49.240;9.088;2024-03-02T10:44:31;18.10;99.90
18868;DHT22;9563;49.240;9.088;2024-03-02T10:47:02;18.40;99.90
18868;DHT22;9563;49.240;9.088;2024-03-02T10:49:30;18.50;99.90
18868;DHT22;9563;49.240;9.088;2024-03-02T10:51:58;18.60;99.90
18868;DHT22;9563;49.240;9.088;2024-03-02T10:54:25;18.40;99.90
18868;DHT22;9563;49.240;9.088;2024-03-02T10:56:57;18.60;99.90
18868;DHT22;9563;49.240;9.088;2024-03-02T10:59:27;18.90;99.40
18868;DHT22;9563;49.240;9.088;2024-03-02T11:01:59;19.10;99.80
18868;DHT22;9563;49.240;9.088;2024-03-02T11:04:27;19.10;96.70
18868;DHT22;9563;49.240;9.088;2024-03-02T11:06:58;19.20;96.60
18868;DHT22;9563;49.240;9.088;2024-03-02T11:09:27;19.30;95.80
18868;DHT22;9563;49.240;9.088;2024-03-02T11:12:00;19.30;97.30
18868;DHT22;9563;49.240;9.088;2024-03-02T11:14:30;19.40;96.60
18868;DHT22;9563;49.240;9.088;2024-03-02T11:16:59;19.50;96.40
18868;DHT22;9563;49.240;9.088;2024-03-02T11:19:26;19.50;94.50
18868;DHT22;9563;49.240;9.088;2024-03-02T11:21:54;19.30;94.70
18868;DHT22;9563;49.240;9.088;2024-03-02T11:24:31;19.60;94.70
18868;DHT22;9563;49.240;9.088;2024-03-02T11:26:59;19.70;94.30
18868;DHT22;9563;49.240;9.088;2024-03-02T11:29:46;19.70;94.30
18868;DHT22;9563;49.240;9.088;2024-03-02T11:32:17;19.50;93.10
18868;DHT22;9563;49.240;9.088;2024-03-02T11:34:45;19.40;93.90
18868;DHT22;9563;49.240;9.088;2024-03-02T11:37:13;19.30;93.40
18868;DHT22;9563;49.240;9.088;2024-03-02T11:39:40;19.30;94.20
18868;DHT22;9563;49.240;9.088;2024-03-02T11:42:08;19.40;95.10
18868;DHT22;9563;49.240;9.088;2024-03-02T11:44:35;19.40;94.50
18868;DHT22;9563;49.240;9.088;2024-03-02T11:47:05;19.40;93.00
18868;DHT22;9563;49.240;9.088;2024-03-02T11:49:41;19.50;92.90
18868;DHT22;9563;49.240;9.088;2024-03-02T11:52:09;19.70;93.60
18868;DHT22;9563;49.240;9.088;2024-03-02T11:54:37;19.70;93.70
18868;DHT22;9563;49.240;9.088;2024-03-02T11:57:05;19.80;92.20
18868;DHT22;9563;49.240;9.088;2024-03-02T11:59:32;19.60;91.30
18868;DHT22;9563;49.240;9.088;2024-03-02T12:02:00;19.60;91.60
18868;DHT22;9563;49.240;9.088;2024-03-02T12:04:27;19.50;91.30
18868;DHT22;9563;49.240;9.088;2024-03-02T12:06:56;19.40;91.10
18868;DHT22;9563;49.240;9.088;2024-03-02T12:09:25;19.60;92.20
18868;DHT22;9563;49.240;9.088;2024-03-02T12:12:02;19.60;92.70
18868;DHT22;9563;49.240;9.088;2024-03-02T12:14:29;19.60;92.10
18868;DHT22;9563;49.240;9.088;2024-03-02T12:16:56;19.80;91.40
18868;DHT22;9563;49.240;9.088;2024-03-02T12:19:24;19.70;91.80
18868;DHT22;9563;49.240;9.088;2024-03-02T12:21:51;19.80;91.80
18868;DHT22;9563;49.240;9.088;2024-03-02T12:24:20;19.80;91.50
18868;DHT22;9563;49.240;9.088;2024-03-02T12:26:48;19.60;91.60
18868;DHT22;9563;49.240;9.088;2024-03-02T12:29:16;19.60;91.30
18868;DHT22;9563;49.240;9.088;2024-03-02T12:31:43;19.60;91.20
18868;DHT22;9563;49.240;9.088;2024-03-02T12:34:12;19.70;91.50
18868;DHT22;9563;49.240;9.088;2024-03-02T12:36:39;19.70;90.40
18868;DHT22;9563;49.240;9.088;2024-03-02T12:39:07;19.90;90.00
18868;DHT22;9563;49.240;9.088;2024-03-02T12:41:37;19.60;90.00
18868;DHT22;9563;49.240;9.088;2024-03-02T12:44:04;19.80;89.80
18868;DHT22;9563;49.240;9.088;2024-03-02T12:46:31;19.90;91.20
18868;DHT22;9563;49.240;9.088;2024-03-02T12:48:58;19.90;89.20
18868;DHT22;9563;49.240;9.088;2024-03-02T12:51:31;20.10;90.70
18868;DHT22;9563;49.240;9.088;2024-03-02T12:53:58;20.20;88.10
18868;DHT22;9563;49.240;9.088;2024-03-02T12:56:25;20.50;89.90
18868;DHT22;9563;49.240;9.088;2024-03-02T12:58:54;20.60;86.60
18868;DHT22;9563;49.240;9.088;2024-03-02T13:01:21;20.70;86.60
18868;DHT22;9563;49.240;9.088;2024-03-02T13:03:49;20.70;85.00
18868;DHT22;9563;49.240;9.088;2024-03-02T13:06:17;20.50;84.30
18868;DHT22;9563;49.240;9.088;2024-03-02T13:08:45;20.40;84.60
18868;DHT22;9563;49.240;9.088;2024-03-02T13:11:13;20.70;87.30
18868;DHT22;9563;49.240;9.088;2024-03-02T13:13:40;20.90;86.80
18868;DHT22;9563;49.240;9.088;2024-03-02T13:16:11;20.80;83.40
18868;DHT22;9563;49.240;9.088;2024-03-02T13:18:38;20.70;85.00
18868;DHT22;9563;49.240;9.088;2024-03-02T13:21:06;21.00;86.10
18868;DHT22;9563;49.240;9.088;2024-03-02T13:23:32;21.00;84.80
18868;DHT22;9563;49.240;9.088;2024-03-02T13:26:01;21.10;84.10
18868;DHT22;9563;49.240;9.088;2024-03-02T13:28:28;21.10;84.70
18868;DHT22;9563;49.240;9.088;2024-03-02T13:30:55;21.30;84.50
18868;DHT22;9563;49.240;9.088;2024-03-02T13:33:23;21.40;83.60
18868;DHT22;9563;49.240;9.088;2024-03-02T13:35:50;21.30;81.40
18868;DHT22;9563;49.240;9.088;2024-03-02T13:38:18;21.20;81.20
18868;DHT22;9563;49.240;9.088;2024-03-02T13:40:45;21.30;82.60
18868;DHT22;9563;49.240;9.088;2024-03-02T13:43:12;21.40;80.50
18868;DHT22;9563;49.240;9.088;2024-03-02T13:45:39;21.10;79.40
18868;DHT22;9563;49.240;9.088;2024-03-02T13:48:07;20.90;77.30
18868;DHT22;9563;49.240;9.088;2024-03-02T13:50:35;20.80;79.50
18868;DHT22;9563;49.240;9.088;2024-03-02T13:53:02;20.70;78.30
18868;DHT22;9563;49.240;9.088;2024-03-02T13:55:30;20.60;79.80
18868;DHT22;9563;49.240;9.088;2024-03-02T13:57:57;20.40;78.00
18868;DHT22;9563;49.240;9.088;2024-03-02T14:00:24;20.40;80.80
18868;DHT22;9563;49.240;9.088;2024-03-02T14:02:52;20.30;80.10
18868;DHT22;9563;49.240;9.088;2024-03-02T14:05:17;20.30;79.40
18868;DHT22;9563;49.240;9.088;2024-03-02T14:07:46;20.60;79.40
18868;DHT22;9563;49.240;9.088;2024-03-02T14:10:13;20.60;78.90
18868;DHT22;9563;49.240;9.088;2024-03-02T14:12:41;20.70;78.80
18868;DHT22;9563;49.240;9.088;2024-03-02T14:15:08;20.90;79.40
18868;DHT22;9563;49.240;9.088;2024-03-02T14:17:35;21.10;77.20
18868;DHT22;9563;49.240;9.088;2024-03-02T14:20:02;21.00;76.30
18868;DHT22;9563;49.240;9.088;2024-03-02T14:22:30;21.00;75.10
18868;DHT22;9563;49.240;9.088;2024-03-02T14:24:58;21.10;76.00
18868;DHT22;9563;49.240;9.088;2024-03-02T14:27:25;21.00;75.60
18868;DHT22;9563;49.240;9.088;2024-03-02T14:29:52;21.10;72.30
18868;DHT22;9563;49.240;9.088;2024-03-02T14:32:19;20.60;71.70
18868;DHT22;9563;49.240;9.088;2024-03-02T14:34:46;20.30;71.70
18868;DHT22;9563;49.240;9.088;2024-03-02T14:37:13;20.10;74.00
18868;DHT22;9563;49.240;9.088;2024-03-02T14:39:40;20.30;77.10
18868;DHT22;9563;49.240;9.088;2024-03-02T14:42:08;20.40;75.00
18868;DHT22;9563;49.240;9.088;2024-03-02T14:44:35;20.30;72.60
18868;DHT22;9563;49.240;9.088;2024-03-02T14:47:02;20.20;72.80
18868;DHT22;9563;49.240;9.088;2024-03-02T14:49:29;20.20;76.10
18868;DHT22;9563;49.240;9.088;2024-03-02T14:51:56;19.90;77.40
18868;DHT22;9563;49.240;9.088;2024-03-02T14:54:23;19.90;76.80
18868;DHT22;9563;49.240;9.088;2024-03-02T14:56:50;19.80;76.10
18868;DHT22;9563;49.240;9.088;2024-03-02T14:59:18;20.00;77.70
18868;DHT22;9563;49.240;9.088;2024-03-02T15:01:45;20.10;76.30
18868;DHT22;9563;49.240;9.088;2024-03-02T15:04:13;20.20;76.70
18868;DHT22;9563;49.240;9.088;2024-03-02T15:06:41;20.40;75.70
18868;DHT22;9563;49.240;9.088;2024-03-02T15:09:08;20.50;73.20
18868;DHT22;9563;49.240;9.088;2024-03-02T15:11:35;20.50;73.20
18868;DHT22;9563;49.240;9.088;2024-03-02T15:14:02;20.60;74.40
18868;DHT22;9563;49.240;9.088;2024-03-02T15:16:30;20.60;70.40
18868;DHT22;9563;49.240;9.088;2024-03-02T15:18:57;20.30;71.50
18868;DHT22;9563;49.240;9.088;2024-03-02T15:21:24;20.10;71.30
18868;DHT22;9563;49.240;9.088;2024-03-02T15:23:51;19.90;73.20
18868;DHT22;9563;49.240;9.088;2024-03-02T15:26:18;19.90;73.50
18868;DHT22;9563;49.240;9.088;2024-03-02T15:28:45;20.00;75.70
18868;DHT22;9563;49.240;9.088;2024-03-02T15:31:11;20.10;75.90
18868;DHT22;9563;49.240;9.088;2024-03-02T15:33:39;20.20;74.90
18868;DHT22;9563;49.240;9.088;2024-03-02T15:36:07;20.30;75.30
18868;DHT22;9563;49.240;9.088;2024-03-02T15:38:34;20.40;74.50
18868;DHT22;9563;49.240;9.088;2024-03-02T15:41:03;20.40;74.20
18868;DHT22;9563;49.240;9.088;2024-03-02T15:43:29;20.10;73.90
18868;DHT22;9563;49.240;9.088;2024-03-02T15:45:58;20.00;74.50
18868;DHT22;9563;49.240;9.088;2024-03-02T15:48:25;19.90;75.50
18868;DHT22;9563;49.240;9.088;2024-03-02T15:50:53;19.70;77.20
18868;DHT22;9563;49.240;9.088;2024-03-02T15:53:21;19.50;77.10
18868;DHT22;9563;49.240;9.088;2024-03-02T15:55:47;19.30;77.20
18868;DHT22;9563;49.240;9.088;2024-03-02T15:58:14;19.00;77.80
18868;DHT22;9563;49.240;9.088;2024-03-02T16:00:41;18.60;79.90
18868;DHT22;9563;49.240;9.088;2024-03-02T16:03:08;18.30;82.40
18868;DHT22;9563;49.240;9.088;2024-03-02T16:05:35;18.00;82.00
18868;DHT22;9563;49.240;9.088;2024-03-02T16:08:04;17.80;81.80
18868;DHT22;9563;49.240;9.088;2024-03-02T16:10:31;17.60;83.20
18868;DHT22;9563;49.240;9.088;2024-03-02T16:12:57;17.30;84.30
18868;DHT22;9563;49.240;9.088;2024-03-02T16:15:26;17.10;88.10
18868;DHT22;9563;49.240;9.088;2024-03-02T16:17:53;16.90;87.90
18868;DHT22;9563;49.240;9.088;2024-03-02T16:20:20;16.80;90.00
18868;DHT22;9563;49.240;9.088;2024-03-02T16:22:47;16.60;90.80
18868;DHT22;9563;49.240;9.088;2024-03-02T16:25:15;16.40;91.30
18868;DHT22;9563;49.240;9.088;2024-03-02T16:27:42;16.30;92.70
18868;DHT22;9563;49.240;9.088;2024-03-02T16:30:09;16.20;93.40
18868;DHT22;9563;49.240;9.088;2024-03-02T16:32:36;16.00;92.10
18868;DHT22;9563;49.240;9.088;2024-03-02T16:35:04;15.80;92.10
18868;DHT22;9563;49.240;9.088;2024-03-02T16:37:31;15.70;92.70
18868;DHT22;9563;49.240;9.088;2024-03-02T16:39:58;15.50;93.30
18868;DHT22;9563;49.240;9.088;2024-03-02T16:42:27;15.40;93.70
18868;DHT22;9563;49.240;9.088;2024-03-02T16:44:54;15.40;94.80
18868;DHT22;9563;49.240;9.088;2024-03-02T16:47:22;15.20;95.00
18868;DHT22;9563;49.240;9.088;2024-03-02T16:49:51;15.20;95.80
18868;DHT22;9563;49.240;9.088;2024-03-02T16:52:18;15.10;96.30
18868;DHT22;9563;49.240;9.088;2024-03-02T16:54:48;15.00;97.10
18868;DHT22;9563;49.240;9.088;2024-03-02T16:57:16;15.00;97.30
18868;DHT22;9563;49.240;9.088;2024-03-02T16:59:45;14.90;97.80
18868;DHT22;9563;49.240;9.088;2024-03-02T17:02:12;14.80;98.10
18868;DHT22;9563;49.240;9.088;2024-03-02T17:04:39;14.80;98.50
18868;DHT22;9563;49.240;9.088;2024-03-02T17:07:06;14.70;98.80
18868;DHT22;9563;49.240;9.088;2024-03-02T17:09:33;14.60;99.10
18868;DHT22;9563;49.240;9.088;2024-03-02T17:12:00;14.50;99.90
18868;DHT22;9563;49.240;9.088;2024-03-02T17:14:26;14.50;99.90
18868;DHT22;9563;49.240;9.088;2024-03-02T17:16:54;14.40;99.90
18868;DHT22;9563;49.240;9.088;2024-03-02T17:19:22;14.40;99.90
18868;DHT22;9563;49.240;9.088;2024-03-02T17:21:48;14.30;99.90
18868;DHT22;9563;49.240;9.088;2024-03-02T17:24:15;14.30;99.90
18868;DHT22;9563;49.240;9.088;2024-03-02T17:26:42;14.20;99.90
18868;DHT22;9563;49.240;9.088;2024-03-02T17:29:09;14.20;99.90
18868;DHT22;9563;49.240;9.088;2024-03-02T17:31:36;14.10;99.90
18868;DHT22;9563;49.240;9.088;2024-03-02T17:34:04;14.10;99.90
18868;DHT22;9563;49.240;9.088;2024-03-02T17:36:31;14.00;99.90
18868;DHT22;9563;49.240;9.088;2024-03-02T17:38:58;14.00;99.90
18868;DHT22;9563;49.240;9.088;2024-03-02T17:41:24;13.90;99.90
18868;DHT22;9563;49.240;9.088;2024-03-02T17:43:51;13.80;99.90
18868;DHT22;9563;49.240;9.088;2024-03-02T17:46:18;13.80;99.90
18868;DHT22;9563;49.240;9.088;2024-03-02T17:48:45;13.70;99.90
18868;DHT22;9563;49.240;9.088;2024-03-02T17:51:13;13.60;99.90
18868;DHT22;9563;49.240;9.088;2024-03-02T17:53:41;13.60;99.90
18868;DHT22;9563;49.240;9.088;2024-03-02T17:56:09;13.50;99.90
18868;DHT22;9563;49.240;9.088;2024-03-02T17:58:36;13.50;99.90
18868;DHT22;9563;49.240;9.088;2024-03-02T18:01:03;13.40;99.90
18868;DHT22;9563;49.240;9.088;2024-03-02T18:03:30;13.40;99.90
18868;DHT22;9563;49.240;9.088;2024-03-02T18:05:58;13.30;99.90
18868;DHT22;9563;49.240;9.088;2024-03-02T18:08:26;13.30;99.90
18868;DHT22;9563;49.240;9.088;2024-03-02T18:10:53;13.30;99.90
18868;DHT22;9563;49.240;9.088;2024-03-02T18:13:20;13.20;99.90
18868;DHT22;9563;49.240;9.088;2024-03-02T18:15:47;13.20;99.90
18868;DHT22;9563;49.240;9.088;2024-03-02T18:18:14;13.10;99.90
18868;DHT22;9563;49.240;9.088;2024-03-02T18:20:41;13.00;99.90
18868;DHT22;9563;49.240;9.088;2024-03-02T18:23:08;13.00;99.90
18868;DHT22;9563;49.240;9.088;2024-03-02T18:25:36;13.00;99.90
18868;DHT22;9563;49.240;9.088;2024-03-02T18:28:04;13.00;99.90
18868;DHT22;9563;49.240;9.088;2024-03-02T18:30:31;13.00;99.90
18868;DHT22;9563;49.240;9.088;2024-03-02T18:32:58;12.90;99.90
18868;DHT22;9563;49.240;9.088;2024-03-02T18:35:25;12.90;99.90
18868;DHT22;9563;49.240;9.088;2024-03-02T18:37:53;12.80;99.90
18868;DHT22;9563;49.240;9.088;2024-03-02T18:40:20;12.80;99.90
18868;DHT22;9563;49.240;9.088;2024-03-02T18:42:48;12.80;99.90
18868;DHT22;9563;49.240;9.088;2024-03-02T18:45:15;12.80;99.90
18868;DHT22;9563;49.240;9.088;2024-03-02T18:47:44;12.70;99.90
18868;DHT22;9563;49.240;9.088;2024-03-02T18:50:11;12.70;99.90
18868;DHT22;9563;49.240;9.088;2024-03-02T18:52:38;12.60;99.90
18868;DHT22;9563;49.240;9.088;2024-03-02T18:55:05;12.60;99.90
18868;DHT22;9563;49.240;9.088;2024-03-02T18:57:32;12.60;99.90
18868;DHT22;9563;49.240;9.088;2024-03-02T19:00:01;12.50;99.90
18868;DHT22;9563;49.240;9.088;2024-03-02T19:02:34;12.40;99.90
18868;DHT22;9563;49.240;9.088;2024-03-02T19:05:01;12.40;99.90
18868;DHT22;9563;49.240;9.088;2024-03-02T19:07:30;12.30;99.90
18868;DHT22;9563;49.240;9.088;2024-03-02T19:09:57;12.30;99.90
18868;DHT22;9563;49.240;9.088;2024-03-02T19:12:24;12.30;99.90
18868;DHT22;9563;49.240;9.088;2024-03-02T19:14:51;12.30;99.90
18868;DHT22;9563;49.240;9.088;2024-03-02T19:17:20;12.20;99.90
18868;DHT22;9563;49.240;9.088;2024-03-02T19:19:46;12.30;99.90
18868;DHT22;9563;49.240;9.088;2024-03-02T19:22:13;12.20;99.90
18868;DHT22;9563;49.240;9.088;2024-03-02T19:24:40;12.20;99.90
18868;DHT22;9563;49.240;9.088;2024-03-02T19:27:07;12.20;99.90
18868;DHT22;9563;49.240;9.088;2024-03-02T19:29:34;12.10;99.90
18868;DHT22;9563;49.240;9.088;2024-03-02T19:32:02;12.20;99.90
18868;DHT22;9563;49.240;9.088;2024-03-02T19:34:30;12.10;99.90
18868;DHT22;9563;49.240;9.088;2024-03-02T19:36:57;12.10;99.90
18868;DHT22;9563;49.240;9.088;2024-03-02T19:39:25;12.10;99.90
18868;DHT22;9563;49.240;9.088;2024-03-02T19:41:53;12.00;99.90
18868;DHT22;9563;49.240;9.088;2024-03-02T19:44:21;12.00;99.90
18868;DHT22;9563;49.240;9.088;2024-03-02T19:46:48;12.00;99.90
18868;DHT22;9563;49.240;9.088;2024-03-02T19:49:15;12.00;99.90
18868;DHT22;9563;49.240;9.088;2024-03-02T19:51:43;11.90;99.90
18868;DHT22;9563;49.240;9.088;2024-03-02T19:54:10;11.90;99.90
18868;DHT22;9563;49.240;9.088;2024-03-02T19:56:36;11.90;99.90
18868;DHT22;9563;49.240;9.088;2024-03-02T19:59:04;11.80;99.90
18868;DHT22;9563;49.240;9.088;2024-03-02T20:01:31;11.80;99.90
18868;DHT22;9563;49.240;9.088;2024-03-02T20:03:58;11.80;99.90
18868;DHT22;9563;49.240;9.088;2024-03-02T20:06:24;11.70;99.90
18868;DHT22;9563;49.240;9.088;2024-03-02T20:08:53;11.70;99.90
18868;DHT22;9563;49.240;9.088;2024-03-02T20:11:20;11.70;99.90
18868;DHT22;9563;49.240;9.088;2024-03-02T20:13:46;11.70;99.90
18868;DHT22;9563;49.240;9.088;2024-03-02T20:16:13;11.70;99.90
18868;DHT22;9563;49.240;9.088;2024-03-02T20:18:43;11.70;99.90
18868;DHT22;9563;49.240;9.088;2024-03-02T20:21:09;11.60;99.90
18868;DHT22;9563;49.240;9.088;2024-03-02T20:23:37;11.50;99.90
18868;DHT22;9563;49.240;9.088;2024-03-02T20:26:05;11.50;99.90
18868;DHT22;9563;49.240;9.088;2024-03-02T20:28:32;11.50;99.90
18868;DHT22;9563;49.240;9.088;2024-03-02T20:30:59;11.50;99.90
18868;DHT22;9563;49.240;9.088;2024-03-02T20:33:26;11.50;99.90
18868;DHT22;9563;49.240;9.088;2024-03-02T20:35:53;11.40;99.90
18868;DHT22;9563;49.240;9.088;2024-03-02T20:38:20;11.30;99.90
18868;DHT22;9563;49.240;9.088;2024-03-02T20:40:47;11.30;99.90
18868;DHT22;9563;49.240;9.088;2024-03-02T20:43:17;11.20;99.90
18868;DHT22;9563;49.240;9.088;2024-03-02T20:45:44;11.20;99.90
18868;DHT22;9563;49.240;9.088;2024-03-02T20:48:11;11.20;99.90
18868;DHT22;9563;49.240;9.088;2024-03-02T20:50:39;11.20;99.90
18868;DHT22;9563;49.240;9.088;2024-03-02T20:53:05;11.20;99.90